KSJT

San Angelo Regional / Mathis Field Airport

San Angelo, Texas, USA
METAR KSJT 191651Z 18009KT 10SM FEW110 27/19 A2998 RMK AO2 SLP127 T02670194
Observed Flight Rules
Aug-19 @ 16:51 UTC (21 minutes ago) Visual Flight Rules
Wind Visibility Clouds
180° at 9 knots 10 miles
  • Few at 11,000' AGL
Temperatures Readings
Current 27°C / 81°F
Dewpoint 19°C / 66°F
Humidity 62%
Altimeter 29.98" Hg
Pressure 1012.7 hPa
Elevation 576
METAR KSJT 191651Z 18009KT 10SM FEW110 27/19 A2998 RMK AO2 SLP127 T02670194
Observed Flight Rules
Aug-19 @ 16:51 UTC
(21 minutes ago)
VFR
Wind Visibility
180° at 9 knots 10 miles
Clouds
  • Few at 11,000' AGL
Temperature Dewpoint
27°C / 81°F 19°C / 66°F
Humidity Altimeter Pressure
62% 29.98" Hg 1012.7 hPa